Arcadia Highway — 3FQT4 — position and weather

sailwx.info

Track history (hours):
 
Tides and Currents Weather Stations Pressure Air Temp Water Temp Dewpoint Dewpoint Depression Visibility Wind Speed Wind Dir Waves Ship Positions

Arcadia Highway

Last reported at 2016-Aug-25 18:20 UTC. Time now 2016-Aug-30 18:55 UTC.
Position N 48°31' W 127°43'.

Length 179 m; draft 7.5 m.

Type: Cargo ship. MMSI: 354342000.

Date/timePositionNaut miles runAvg speedWind from/ knotsBaromVisibWave heightAir tempDewpointWater temp
2016-Aug-25 18:20N 48°31' W 127°43'1114.4
2016-Aug-25 17:33N 48°31' W 127°26'1414.5
2016-Aug-25 16:33N 48°31' W 127°05'1514.9
2016-Aug-25 15:33N 48°31' W 126°42'1515.0
2016-Aug-25 14:33N 48°31' W 126°19'1514.9
2016-Aug-25 13:33N 48°31' W 125°57'1515.3
2016-Aug-25 12:33N 48°31' W 125°34'1615.8
2016-Aug-25 11:33N 48°31' W 125°10'1616.1
2016-Aug-25 10:33N 48°31' W 124°46'1717.3
2016-Aug-25 09:33N 48°25' W 124°21'1817.6
2016-Aug-25 08:33N 48°18' W 123°57'1717.3
2016-Aug-25 07:33N 48°15' W 123°31'1211.5
2016-Aug-25 06:29N 48°11' W 123°14'2512.8
2016-Aug-25 04:32N 48°03' W 122°38'1313.7
2016-Aug-25 03:34N 47°52' W 122°28'1514.9
2016-Aug-25 02:34N 47°37' W 122°27'1414.4
2016-Aug-25 01:34N 47°23' W 122°22'7 6.8
2016-Aug-25 00:32N 47°16' W 122°23'0 0.0
2016-Aug-24 03:04N 47°16' W 122°23'1 2.5
2016-Aug-24 02:34N 47°16' W 122°24'7 7.4
2016-Aug-24 01:34N 47°24' W 122°22'1615.5
2016-Aug-24 00:33N 47°39' W 122°28'1515.3
2016-Aug-23 23:33N 47°54' W 122°30'1714.8
2016-Aug-23 22:25N 48°08' W 122°43'1314.7
2016-Aug-23 21:33N 48°12' W 123°01'1413.6
2016-Aug-23 20:33N 48°11' W 123°21'9 8.8
2016-Aug-23 19:33N 48°13' W 123°34'1313.1
2016-Aug-23 18:33N 48°13' W 123°54'1414.1
2016-Aug-23 17:33N 48°19' W 124°13'1414.3
2016-Aug-23 16:33N 48°25' W 124°33'1514.3
2016-Aug-23 15:32N 48°28' W 124°55'1414.1
2016-Aug-23 14:33N 48°18' W 125°08'1515.4
2016-Aug-23 13:33N 48°04' W 125°18'1414.4
2016-Aug-23 12:33N 47°50' W 125°21'1414.1
2016-Aug-23 11:33N 47°36' W 125°17'1514.7
2016-Aug-23 10:33N 47°22' W 125°10'1514.7
2016-Aug-23 09:34N 47°08' W 125°04'1514.5
2016-Aug-23 08:33N 46°55' W 124°55'1514.9
2016-Aug-23 07:34N 46°43' W 124°43'1514.5
2016-Aug-23 06:34N 46°30' W 124°32'1514.6
2016-Aug-23 05:33N 46°19' W 124°19'10 9.9
2016-Aug-23 04:33N 46°15' W 124°06'1212.2
2016-Aug-23 03:33N 46°12' W 123°48'1212.3
2016-Aug-23 02:33N 46°16' W 123°31'9 9.1
2016-Aug-23 01:33N 46°09' W 123°23'1010.5
2016-Aug-23 00:33N 46°11' W 123°08'1111.1
2016-Aug-22 23:33N 46°05' W 122°55'1010.2
2016-Aug-22 22:33N 45°56' W 122°48'1211.9
2016-Aug-22 21:33N 45°44' W 122°46'6 6.5
2016-Aug-22 20:33N 45°38' W 122°44'0 0.0
2016-Aug-22 19:28N 45°38' W 122°44'0 0.0
2016-Aug-22 18:28N 45°38' W 122°44'0 0.0
2016-Aug-22 17:10N 45°38' W 122°44'0 0.0
2016-Aug-22 16:28N 45°38' W 122°44'0 0.0
2016-Aug-22 15:28N 45°38' W 122°44'0 0.0
2016-Aug-22 14:22N 45°38' W 122°44'0 0.0
2016-Aug-22 13:28N 45°38' W 122°44'0 0.0
2016-Aug-22 12:28N 45°38' W 122°44'0 0.0
2016-Aug-22 11:22N 45°38' W 122°44'0 0.0
2016-Aug-22 10:28N 45°38' W 122°44'0 0.0
2016-Aug-22 09:28N 45°38' W 122°44'0 0.0
2016-Aug-22 08:28N 45°38' W 122°44'0 0.0
2016-Aug-22 07:28N 45°38' W 122°44'0 0.0
2016-Aug-22 06:22N 45°38' W 122°44'0 0.0
2016-Aug-22 04:28N 45°38' W 122°44'0 0.0
2016-Aug-22 03:28N 45°38' W 122°44'0 0.0
2016-Aug-22 02:28N 45°38' W 122°44'0 0.0
2016-Aug-22 01:22N 45°38' W 122°44'0 0.1
2016-Aug-22 00:33N 45°38' W 122°44'9 8.0
2016-Aug-21 23:29N 45°47' W 122°46'1112.1
2016-Aug-21 22:33N 45°58' W 122°49'1010.1
2016-Aug-21 21:33N 46°06' W 122°57'1111.2
2016-Aug-21 20:33N 46°11' W 123°12'10 9.7
2016-Aug-21 19:33N 46°12' W 123°26'9 9.0
2016-Aug-21 18:33N 46°16' W 123°38'1010.4
2016-Aug-21 17:33N 46°12' W 123°52'7 7.0
2016-Aug-21 16:33N 46°15' W 124°00'7 7.5
2016-Aug-21 15:34N 46°11' W 124°10'1313.0
2016-Aug-21 14:33N 45°60' W 124°18'1414.2
2016-Aug-21 13:33N 45°46' W 124°26'1414.2
2016-Aug-21 12:33N 45°33' W 124°33'1414.2
2016-Aug-21 11:33N 45°20' W 124°41'1413.7
2016-Aug-21 10:33N 45°08' W 124°49'1413.9
2016-Aug-21 09:33N 44°55' W 124°56'1413.8
2016-Aug-21 08:32N 44°41' W 124°60'1413.9
2016-Aug-21 07:31N 44°27' W 124°59'1313.7
2016-Aug-21 06:33N 44°13' W 125°00'1414.0
2016-Aug-21 05:33N 43°60' W 125°01'1414.0
2016-Aug-21 04:33N 43°45' W 124°60'1414.0
2016-Aug-21 03:34N 43°31' W 124°60'1514.5
2016-Aug-21 02:33N 43°17' W 124°60'1414.4
2016-Aug-21 01:34N 43°03' W 125°00'1414.5
2016-Aug-21 00:34N 42°48' W 124°60'1414.4
2016-Aug-20 23:33N 42°34' W 124°60'1514.6
2016-Aug-20 22:33N 42°19' W 125°00'20913.9
2016-Aug-20 07:33N 38°55' W 124°02'1515.1
2016-Aug-20 06:33N 38°43' W 123°50'1514.9
2016-Aug-20 05:33N 38°31' W 123°39'1514.9
2016-Aug-20 04:33N 38°19' W 123°28'1313.3
2016-Aug-20 03:33N 38°08' W 123°18'1211.8
2016-Aug-20 02:33N 37°59' W 123°09'1212.1
2016-Aug-20 01:33N 37°52' W 122°56'1212.0
2016-Aug-20 00:33N 37°47' W 122°42'1111.3
2016-Aug-19 23:33N 37°49' W 122°28'6 6.2
2016-Aug-19 22:33N 37°54' W 122°24'2 1.7
2016-Aug-19 21:32N 37°54' W 122°22'0 0.0
2016-Aug-19 20:32N 37°54' W 122°22'0 0.0
2016-Aug-19 19:32N 37°54' W 122°22'0 0.0
2016-Aug-19 18:32N 37°54' W 122°22'0 0.0
2016-Aug-19 17:32N 37°54' W 122°22'0 0.0
2016-Aug-19 16:32N 37°54' W 122°22'0 0.0
2016-Aug-19 15:32N 37°54' W 122°22'0 0.0
2016-Aug-19 14:32N 37°54' W 122°22'0 0.0
2016-Aug-19 13:32N 37°54' W 122°22'0 0.0
2016-Aug-19 12:32N 37°54' W 122°22'0 0.0
2016-Aug-19 11:32N 37°54' W 122°22'0 0.0
2016-Aug-19 10:32N 37°54' W 122°22'0 0.0
2016-Aug-19 09:20N 37°54' W 122°22'0 0.0
2016-Aug-19 08:32N 37°54' W 122°22'0 0.0
2016-Aug-19 07:32N 37°54' W 122°22'0 0.0
2016-Aug-19 06:32N 37°54' W 122°22'0 0.0
2016-Aug-19 05:32N 37°54' W 122°22'0 0.0
2016-Aug-19 04:32N 37°54' W 122°22'0 0.0
2016-Aug-19 03:32N 37°54' W 122°22'0 0.3
2016-Aug-19 02:33N 37°54' W 122°22'3 3.2
2016-Aug-19 01:33N 37°52' W 122°25'8 7.4
2016-Aug-19 00:29N 37°45' W 122°21'0 0.0
2016-Aug-18 23:29N 37°45' W 122°21'0 0.1
2016-Aug-18 22:29N 37°45' W 122°21'0 0.1
2016-Aug-18 21:29N 37°45' W 122°21'0 0.0
2016-Aug-18 20:32N 37°45' W 122°21'0 0.1
2016-Aug-18 19:29N 37°45' W 122°21'0 0.0
2016-Aug-18 18:29N 37°45' W 122°21'0 0.0
2016-Aug-18 17:23N 37°45' W 122°21'0 0.1
2016-Aug-18 16:33N 37°45' W 122°21'8 8.0
2016-Aug-18 15:33N 37°48' W 122°30'10 9.7
2016-Aug-18 14:33N 37°43' W 122°40'1111.2
2016-Aug-18 13:33N 37°32' W 122°40'1111.1
2016-Aug-18 12:33N 37°21' W 122°40'1111.4
2016-Aug-18 11:33N 37°09' W 122°39'1212.2
2016-Aug-18 10:32N 36°58' W 122°34'1211.1
2016-Aug-18 09:29N 36°46' W 122°30'4 4.1
2016-Aug-18 08:29N 36°50' W 122°28'1111.6
2016-Aug-18 07:33N 36°40' W 122°25'1312.3
2016-Aug-18 06:30N 36°27' W 122°21'1312.5
2016-Aug-18 05:30N 36°16' W 122°13'1212.5
2016-Aug-18 04:33N 36°06' W 122°05'1313.3
2016-Aug-18 03:33N 35°55' W 121°57'4310.3
2016-Aug-17 23:21N 35°18' W 121°28'910.9
2016-Aug-17 22:33N 35°12' W 121°21'23 2.9
2016-Aug-17 14:29N 34°50' W 121°10'5 4.7
2016-Aug-17 13:20N 34°46' W 121°07'6 6.9
2016-Aug-17 12:32N 34°41' W 121°04'1 1.0
2016-Aug-17 11:33N 34°40' W 121°03'45 7.3
2016-Aug-17 05:24N 34°18' W 120°16'19 9.9
2016-Aug-17 03:31N 34°13' W 119°54'10 9.8
2016-Aug-17 02:32N 34°11' W 119°43'10 9.8
2016-Aug-17 01:33N 34°08' W 119°32'1010.0
2016-Aug-17 00:30N 34°05' W 119°19'7 6.8
2016-Aug-16 23:29N 34°09' W 119°12'0 0.0
2016-Aug-16 22:29N 34°09' W 119°12'0 0.0
2016-Aug-16 21:29N 34°09' W 119°12'0 0.0
2016-Aug-16 20:29N 34°09' W 119°12'0 0.0
2016-Aug-16 19:23N 34°09' W 119°12'0 0.0
2016-Aug-16 18:29N 34°09' W 119°12'0 0.0
2016-Aug-16 17:29N 34°09' W 119°12'0 0.0
2016-Aug-16 16:23N 34°09' W 119°12'0 0.0
2016-Aug-16 15:29N 34°09' W 119°12'0 0.0
2016-Aug-16 14:29N 34°09' W 119°12'0 0.0
2016-Aug-16 13:11N 34°09' W 119°12'0 0.2
2016-Aug-16 12:33N 34°09' W 119°12'5 5.4
2016-Aug-16 11:33N 34°04' W 119°14'1111.0
2016-Aug-16 10:33N 33°55' W 119°07'1111.0
2016-Aug-16 09:33N 33°47' W 118°58'4 4.0
2016-Aug-16 08:33N 33°43' W 118°57'1614.6
2016-Aug-16 07:29N 33°30' W 118°47'4114.1
2016-Aug-16 04:33N 33°00' W 118°13'1414.4
2016-Aug-16 03:33N 32°51' W 117°59'1413.6
2016-Aug-16 02:33N 32°42' W 117°47'1312.7
2016-Aug-16 01:33N 32°37' W 117°33'1414.2
2016-Aug-16 00:33N 32°37' W 117°17'8 7.7
2016-Aug-15 23:33N 32°42' W 117°10'4 3.7
2016-Aug-15 22:27N 32°39' W 117°07'0 0.0
2016-Aug-15 21:27N 32°39' W 117°07'0 0.0
2016-Aug-15 20:33N 32°39' W 117°07'0 0.0
2016-Aug-15 19:33N 32°39' W 117°07'0 0.0
2016-Aug-15 18:33N 32°39' W 117°07'  
Track history (hours):
 
Tides and Currents Weather Stations Pressure Air Temp Water Temp Dewpoint Dewpoint Depression Visibility Wind Speed Wind Dir Waves Ship Positions

Arcadia Highway

Last reported at 2016-Aug-25 18:20 UTC. Time now 2016-Aug-30 18:55 UTC.
Position N 48°31' W 127°43'.

Length 179 m; draft 7.5 m.

Type: Cargo ship. MMSI: 354342000.

Date/timePositionNaut miles runAvg speedWind from/ knotsBaromVisibWave heightAir tempDewpointWater temp
2016-Aug-25 18:20N 48°31' W 127°43'1114.4
2016-Aug-25 17:33N 48°31' W 127°26'1414.5
2016-Aug-25 16:33N 48°31' W 127°05'1514.9
2016-Aug-25 15:33N 48°31' W 126°42'1515.0
2016-Aug-25 14:33N 48°31' W 126°19'1514.9
2016-Aug-25 13:33N 48°31' W 125°57'1515.3
2016-Aug-25 12:33N 48°31' W 125°34'1615.8
2016-Aug-25 11:33N 48°31' W 125°10'1616.1
2016-Aug-25 10:33N 48°31' W 124°46'1717.3
2016-Aug-25 09:33N 48°25' W 124°21'1817.6
2016-Aug-25 08:33N 48°18' W 123°57'1717.3
2016-Aug-25 07:33N 48°15' W 123°31'1211.5
2016-Aug-25 06:29N 48°11' W 123°14'2512.8
2016-Aug-25 04:32N 48°03' W 122°38'1313.7
2016-Aug-25 03:34N 47°52' W 122°28'1514.9
2016-Aug-25 02:34N 47°37' W 122°27'1414.4
2016-Aug-25 01:34N 47°23' W 122°22'7 6.8
2016-Aug-25 00:32N 47°16' W 122°23'0 0.0
2016-Aug-24 03:04N 47°16' W 122°23'1 2.5
2016-Aug-24 02:34N 47°16' W 122°24'7 7.4
2016-Aug-24 01:34N 47°24' W 122°22'1615.5
2016-Aug-24 00:33N 47°39' W 122°28'1515.3
2016-Aug-23 23:33N 47°54' W 122°30'1714.8
2016-Aug-23 22:25N 48°08' W 122°43'1314.7
2016-Aug-23 21:33N 48°12' W 123°01'1413.6
2016-Aug-23 20:33N 48°11' W 123°21'9 8.8
2016-Aug-23 19:33N 48°13' W 123°34'1313.1
2016-Aug-23 18:33N 48°13' W 123°54'1414.1
2016-Aug-23 17:33N 48°19' W 124°13'1414.3
2016-Aug-23 16:33N 48°25' W 124°33'1514.3
2016-Aug-23 15:32N 48°28' W 124°55'1414.1
2016-Aug-23 14:33N 48°18' W 125°08'1515.4
2016-Aug-23 13:33N 48°04' W 125°18'1414.4
2016-Aug-23 12:33N 47°50' W 125°21'1414.1
2016-Aug-23 11:33N 47°36' W 125°17'1514.7
2016-Aug-23 10:33N 47°22' W 125°10'1514.7
2016-Aug-23 09:34N 47°08' W 125°04'1514.5
2016-Aug-23 08:33N 46°55' W 124°55'1514.9
2016-Aug-23 07:34N 46°43' W 124°43'1514.5
2016-Aug-23 06:34N 46°30' W 124°32'1514.6
2016-Aug-23 05:33N 46°19' W 124°19'10 9.9
2016-Aug-23 04:33N 46°15' W 124°06'1212.2
2016-Aug-23 03:33N 46°12' W 123°48'1212.3
2016-Aug-23 02:33N 46°16' W 123°31'9 9.1
2016-Aug-23 01:33N 46°09' W 123°23'1010.5
2016-Aug-23 00:33N 46°11' W 123°08'1111.1
2016-Aug-22 23:33N 46°05' W 122°55'1010.2
2016-Aug-22 22:33N 45°56' W 122°48'1211.9
2016-Aug-22 21:33N 45°44' W 122°46'6 6.5
2016-Aug-22 20:33N 45°38' W 122°44'0 0.0
2016-Aug-22 19:28N 45°38' W 122°44'0 0.0
2016-Aug-22 18:28N 45°38' W 122°44'0 0.0
2016-Aug-22 17:10N 45°38' W 122°44'0 0.0
2016-Aug-22 16:28N 45°38' W 122°44'0 0.0
2016-Aug-22 15:28N 45°38' W 122°44'0 0.0
2016-Aug-22 14:22N 45°38' W 122°44'0 0.0
2016-Aug-22 13:28N 45°38' W 122°44'0 0.0
2016-Aug-22 12:28N 45°38' W 122°44'0 0.0
2016-Aug-22 11:22N 45°38' W 122°44'0 0.0
2016-Aug-22 10:28N 45°38' W 122°44'0 0.0
2016-Aug-22 09:28N 45°38' W 122°44'0 0.0
2016-Aug-22 08:28N 45°38' W 122°44'0 0.0
2016-Aug-22 07:28N 45°38' W 122°44'0 0.0
2016-Aug-22 06:22N 45°38' W 122°44'0 0.0
2016-Aug-22 04:28N 45°38' W 122°44'0 0.0
2016-Aug-22 03:28N 45°38' W 122°44'0 0.0
2016-Aug-22 02:28N 45°38' W 122°44'0 0.0
2016-Aug-22 01:22N 45°38' W 122°44'0 0.1
2016-Aug-22 00:33N 45°38' W 122°44'9 8.0
2016-Aug-21 23:29N 45°47' W 122°46'1112.1
2016-Aug-21 22:33N 45°58' W 122°49'1010.1
2016-Aug-21 21:33N 46°06' W 122°57'1111.2
2016-Aug-21 20:33N 46°11' W 123°12'10 9.7
2016-Aug-21 19:33N 46°12' W 123°26'9 9.0
2016-Aug-21 18:33N 46°16' W 123°38'1010.4
2016-Aug-21 17:33N 46°12' W 123°52'7 7.0
2016-Aug-21 16:33N 46°15' W 124°00'7 7.5
2016-Aug-21 15:34N 46°11' W 124°10'1313.0
2016-Aug-21 14:33N 45°60' W 124°18'1414.2
2016-Aug-21 13:33N 45°46' W 124°26'1414.2
2016-Aug-21 12:33N 45°33' W 124°33'1414.2
2016-Aug-21 11:33N 45°20' W 124°41'1413.7
2016-Aug-21 10:33N 45°08' W 124°49'1413.9
2016-Aug-21 09:33N 44°55' W 124°56'1413.8
2016-Aug-21 08:32N 44°41' W 124°60'1413.9
2016-Aug-21 07:31N 44°27' W 124°59'1313.7
2016-Aug-21 06:33N 44°13' W 125°00'1414.0
2016-Aug-21 05:33N 43°60' W 125°01'1414.0
2016-Aug-21 04:33N 43°45' W 124°60'1414.0
2016-Aug-21 03:34N 43°31' W 124°60'1514.5
2016-Aug-21 02:33N 43°17' W 124°60'1414.4
2016-Aug-21 01:34N 43°03' W 125°00'1414.5
2016-Aug-21 00:34N 42°48' W 124°60'1414.4
2016-Aug-20 23:33N 42°34' W 124°60'1514.6
2016-Aug-20 22:33N 42°19' W 125°00'20913.9
2016-Aug-20 07:33N 38°55' W 124°02'1515.1
2016-Aug-20 06:33N 38°43' W 123°50'1514.9
2016-Aug-20 05:33N 38°31' W 123°39'1514.9
2016-Aug-20 04:33N 38°19' W 123°28'1313.3
2016-Aug-20 03:33N 38°08' W 123°18'1211.8
2016-Aug-20 02:33N 37°59' W 123°09'1212.1
2016-Aug-20 01:33N 37°52' W 122°56'1212.0
2016-Aug-20 00:33N 37°47' W 122°42'1111.3
2016-Aug-19 23:33N 37°49' W 122°28'6 6.2
2016-Aug-19 22:33N 37°54' W 122°24'2 1.7
2016-Aug-19 21:32N 37°54' W 122°22'0 0.0
2016-Aug-19 20:32N 37°54' W 122°22'0 0.0
2016-Aug-19 19:32N 37°54' W 122°22'0 0.0
2016-Aug-19 18:32N 37°54' W 122°22'0 0.0
2016-Aug-19 17:32N 37°54' W 122°22'0 0.0
2016-Aug-19 16:32N 37°54' W 122°22'0 0.0
2016-Aug-19 15:32N 37°54' W 122°22'0 0.0
2016-Aug-19 14:32N 37°54' W 122°22'0 0.0
2016-Aug-19 13:32N 37°54' W 122°22'0 0.0
2016-Aug-19 12:32N 37°54' W 122°22'0 0.0
2016-Aug-19 11:32N 37°54' W 122°22'0 0.0
2016-Aug-19 10:32N 37°54' W 122°22'0 0.0
2016-Aug-19 09:20N 37°54' W 122°22'0 0.0
2016-Aug-19 08:32N 37°54' W 122°22'0 0.0
2016-Aug-19 07:32N 37°54' W 122°22'0 0.0
2016-Aug-19 06:32N 37°54' W 122°22'0 0.0
2016-Aug-19 05:32N 37°54' W 122°22'0 0.0
2016-Aug-19 04:32N 37°54' W 122°22'0 0.0
2016-Aug-19 03:32N 37°54' W 122°22'0 0.3
2016-Aug-19 02:33N 37°54' W 122°22'3 3.2
2016-Aug-19 01:33N 37°52' W 122°25'8 7.4
2016-Aug-19 00:29N 37°45' W 122°21'0 0.0
2016-Aug-18 23:29N 37°45' W 122°21'0 0.1
2016-Aug-18 22:29N 37°45' W 122°21'0 0.1
2016-Aug-18 21:29N 37°45' W 122°21'0 0.0
2016-Aug-18 20:32N 37°45' W 122°21'0 0.1
2016-Aug-18 19:29N 37°45' W 122°21'0 0.0
2016-Aug-18 18:29N 37°45' W 122°21'0 0.0
2016-Aug-18 17:23N 37°45' W 122°21'0 0.1
2016-Aug-18 16:33N 37°45' W 122°21'8 8.0
2016-Aug-18 15:33N 37°48' W 122°30'10 9.7
2016-Aug-18 14:33N 37°43' W 122°40'1111.2
2016-Aug-18 13:33N 37°32' W 122°40'1111.1
2016-Aug-18 12:33N 37°21' W 122°40'1111.4
2016-Aug-18 11:33N 37°09' W 122°39'1212.2
2016-Aug-18 10:32N 36°58' W 122°34'1211.1
2016-Aug-18 09:29N 36°46' W 122°30'4 4.1
2016-Aug-18 08:29N 36°50' W 122°28'1111.6
2016-Aug-18 07:33N 36°40' W 122°25'1312.3
2016-Aug-18 06:30N 36°27' W 122°21'1312.5
2016-Aug-18 05:30N 36°16' W 122°13'1212.5
2016-Aug-18 04:33N 36°06' W 122°05'1313.3
2016-Aug-18 03:33N 35°55' W 121°57'4310.3
2016-Aug-17 23:21N 35°18' W 121°28'910.9
2016-Aug-17 22:33N 35°12' W 121°21'23 2.9
2016-Aug-17 14:29N 34°50' W 121°10'5 4.7
2016-Aug-17 13:20N 34°46' W 121°07'6 6.9
2016-Aug-17 12:32N 34°41' W 121°04'1 1.0
2016-Aug-17 11:33N 34°40' W 121°03'45 7.3
2016-Aug-17 05:24N 34°18' W 120°16'19 9.9
2016-Aug-17 03:31N 34°13' W 119°54'10 9.8
2016-Aug-17 02:32N 34°11' W 119°43'10 9.8
2016-Aug-17 01:33N 34°08' W 119°32'1010.0
2016-Aug-17 00:30N 34°05' W 119°19'7 6.8
2016-Aug-16 23:29N 34°09' W 119°12'0 0.0
2016-Aug-16 22:29N 34°09' W 119°12'0 0.0
2016-Aug-16 21:29N 34°09' W 119°12'0 0.0
2016-Aug-16 20:29N 34°09' W 119°12'0 0.0
2016-Aug-16 19:23N 34°09' W 119°12'0 0.0
2016-Aug-16 18:29N 34°09' W 119°12'0 0.0
2016-Aug-16 17:29N 34°09' W 119°12'0 0.0
2016-Aug-16 16:23N 34°09' W 119°12'0 0.0
2016-Aug-16 15:29N 34°09' W 119°12'0 0.0
2016-Aug-16 14:29N 34°09' W 119°12'0 0.0
2016-Aug-16 13:11N 34°09' W 119°12'0 0.2
2016-Aug-16 12:33N 34°09' W 119°12'5 5.4
2016-Aug-16 11:33N 34°04' W 119°14'1111.0
2016-Aug-16 10:33N 33°55' W 119°07'1111.0
2016-Aug-16 09:33N 33°47' W 118°58'4 4.0
2016-Aug-16 08:33N 33°43' W 118°57'1614.6
2016-Aug-16 07:29N 33°30' W 118°47'4114.1
2016-Aug-16 04:33N 33°00' W 118°13'1414.4
2016-Aug-16 03:33N 32°51' W 117°59'1413.6
2016-Aug-16 02:33N 32°42' W 117°47'1312.7
2016-Aug-16 01:33N 32°37' W 117°33'1414.2
2016-Aug-16 00:33N 32°37' W 117°17'8 7.7
2016-Aug-15 23:33N 32°42' W 117°10'4 3.7
2016-Aug-15 22:27N 32°39' W 117°07'0 0.0
2016-Aug-15 21:27N 32°39' W 117°07'0 0.0
2016-Aug-15 20:33N 32°39' W 117°07'0 0.0
2016-Aug-15 19:33N 32°39' W 117°07'0 0.0
2016-Aug-15 18:33N 32°39' W 117°07'  

Dump ship's entire track history